Time;durP1;ratioP1;P1;durP2;ratioP2;P2;SDS_P1;SDS_P2;PMS_P1;PMS_P2;Temp;Humidity;BMP_temperature;BMP_pressure;BME280_temperature;BME280_humidity;BME280_pressure;Samples;Min_cycle;Max_cycle;Signal;HPM_P1;HPM_P2
2022/06/17 00:00:14;;;;;;;;;;;;;;;18.24;62.27;101116.34;5090332;28;1217;-68
2022/06/17 00:02:39;;;;;;;;;;;;;;;18.44;59.87;101123.75;5086450;28;1202;-68
2022/06/17 00:05:05;;;;;;;;;;;;;;;18.47;58.68;101109.41;5088033;28;1289;-68
2022/06/17 00:07:30;;;;;;;;;;;;;;;18.47;57.65;101112.16;5085601;28;1304;-69
2022/06/17 00:09:56;;;;;;;;;;;;;;;18.47;57.96;101109.41;5091053;28;1134;-66
2022/06/17 00:12:21;;;;;;;;;;;;;;;19.21;62.04;101111.69;5091543;28;1150;-67
2022/06/17 00:17:30;;;;;;;;;;;;;;;18.68;68.69;101103.03;5090778;28;912;-64
2022/06/17 00:19:56;;;;;;;;;;;;;;;17.80;64.21;101108.59;5090374;28;1122;-63
2022/06/17 00:22:21;;;;;;;;;;;;;;;16.77;70.75;101106.34;5079847;28;1513;-70
2022/06/17 00:24:47;;;;;;;;;;;;;;;17.83;64.38;101105.28;5088727;28;1019;-69
2022/06/17 00:27:12;;;;;;;;;;;;;;;18.23;61.06;101098.19;5066241;28;973;-69
2022/06/17 00:29:38;;;;;;;;;;;;;;;18.35;59.10;101100.63;5061790;28;928;-69
2022/06/17 00:32:04;;;;;;;;;;;;;;;18.38;58.06;101100.06;5090798;28;1066;-70
2022/06/17 00:34:30;;;;;;;;;;;;;;;18.40;58.79;101100.63;5087542;28;1159;-71
2022/06/17 00:36:56;;;;;;;;;;;;;;;19.20;62.36;101098.19;5089197;28;1906;-69
2022/06/17 00:39:23;;;;;;;;;;;;;;;16.58;66.42;101096.91;5090653;28;1138;-69
2022/06/17 00:41:53;;;;;;;;;;;;;;;17.96;69.60;101098.44;5052309;28;987;-68
2022/06/17 00:44:21;;;;;;;;;;;;;;;18.58;64.10;101093.72;5076173;28;1167;-70
2022/06/17 00:46:49;;;;;;;;;;;;;;;16.82;71.94;101100.03;5095033;28;1011;-69
2022/06/17 00:49:14;;;;;;;;;;;;;;;18.80;67.10;101090.63;5083276;28;1016;-70
2022/06/17 00:51:45;;;;;;;;;;;;;;;17.16;64.98;101091.41;5088603;28;1277;-70
2022/06/17 00:54:18;;;;;;;;;;;;;;;17.09;70.47;101094.41;5066695;28;1101;-64
2022/06/17 00:56:43;;;;;;;;;;;;;;;18.01;63.73;101092.13;5068846;28;1910;-65
2022/06/17 00:59:10;;;;;;;;;;;;;;;18.32;60.72;101089.34;5073729;28;1161;-65
2022/06/17 01:01:41;;;;;;;;;;;;;;;18.34;59.28;101082.47;5073820;28;1154;-65
2022/06/17 01:04:09;;;;;;;;;;;;;;;18.35;58.21;101081.34;5084070;28;996;-65
2022/06/17 01:06:35;;;;;;;;;;;;;;;18.90;62.05;101075.16;5087331;28;1189;-64
2022/06/17 01:11:49;;;;;;;;;;;;;;;18.19;70.17;101080.56;5063376;28;1146;-64
2022/06/17 01:14:15;;;;;;;;;;;;;;;19.31;63.71;101080.50;5065346;28;1324;-63
2022/06/17 01:16:41;;;;;;;;;;;;;;;16.65;70.11;101083.75;5071540;28;1898;-64
2022/06/17 01:19:28;;;;;;;;;;;;;;;18.58;68.55;101087.34;5059706;28;2143;-65
2022/06/17 01:22:15;;;;;;;;;;;;;;;16.85;64.99;101082.22;5070719;28;1313;-64
2022/06/17 01:24:41;;;;;;;;;;;;;;;17.92;71.25;101080.84;5091511;28;1241;-65
2022/06/17 01:27:07;;;;;;;;;;;;;;;18.58;64.64;101077.19;5076680;28;1360;-64
2022/06/17 01:29:33;;;;;;;;;;;;;;;16.73;70.96;101079.66;5056302;28;1300;-64
2022/06/17 01:31:58;;;;;;;;;;;;;;;17.63;66.60;101078.63;5073363;28;1296;-65
2022/06/17 01:34:24;;;;;;;;;;;;;;;18.18;62.09;101072.59;5068097;28;1294;-63
2022/06/17 01:36:50;;;;;;;;;;;;;;;18.37;59.93;101065.41;5087191;28;1918;-64
2022/06/17 01:39:17;;;;;;;;;;;;;;;18.37;58.79;101070.91;5093012;28;964;-64
2022/06/17 01:41:42;;;;;;;;;;;;;;;18.38;57.82;101060.69;5088830;28;1150;-65
2022/06/17 01:44:11;;;;;;;;;;;;;;;18.70;60.71;101063.09;5076236;28;980;-64
2022/06/17 01:46:37;;;;;;;;;;;;;;;18.58;63.78;101062.56;5055856;28;1151;-64
2022/06/17 01:49:07;;;;;;;;;;;;;;;16.75;70.84;101050.84;5071647;28;1324;-64
2022/06/17 01:51:34;;;;;;;;;;;;;;;17.62;65.22;101042.00;5078964;28;1198;-64
2022/06/17 01:53:59;;;;;;;;;;;;;;;18.12;61.19;101056.06;5092083;28;1059;-64
2022/06/17 01:56:28;;;;;;;;;;;;;;;18.34;61.00;101045.84;5079911;28;1909;-64
2022/06/17 01:58:57;;;;;;;;;;;;;;;19.26;63.63;101048.22;5072285;28;1350;-63
2022/06/17 02:01:24;;;;;;;;;;;;;;;16.67;67.36;101051.34;5045147;28;1367;-65
2022/06/17 02:03:51;;;;;;;;;;;;;;;17.99;69.95;101053.88;5064343;28;1206;-64
2022/06/17 02:06:21;;;;;;;;;;;;;;;18.65;64.22;101052.09;5048786;28;1132;-63
2022/06/17 02:08:46;;;;;;;;;;;;;;;16.79;71.13;101047.56;5088499;28;1127;-63
2022/06/17 02:11:13;;;;;;;;;;;;;;;17.67;66.19;101046.72;5075787;28;1309;-63
2022/06/17 02:13:44;;;;;;;;;;;;;;;18.19;61.54;101042.03;5051038;28;1233;-62
2022/06/17 02:16:25;;;;;;;;;;;;;;;18.32;59.79;101039.81;5072640;28;1980;-64
2022/06/17 02:19:10;;;;;;;;;;;;;;;18.32;58.75;101043.38;5080658;28;1281;-63
2022/06/17 02:21:38;;;;;;;;;;;;;;;18.99;62.97;101054.19;5094687;28;898;-64
2022/06/17 02:24:04;;;;;;;;;;;;;;;17.38;64.14;101047.22;5068980;28;1123;-63
2022/06/17 02:26:30;;;;;;;;;;;;;;;16.95;70.69;101057.53;5072351;28;1080;-63
2022/06/17 02:28:55;;;;;;;;;;;;;;;17.83;63.68;101049.47;5058652;28;1103;-64
2022/06/17 02:31:21;;;;;;;;;;;;;;;18.16;60.56;101052.75;5073712;28;1503;-64
2022/06/17 02:33:51;;;;;;;;;;;;;;;18.70;63.26;101045.75;5095330;28;968;-63
2022/06/17 02:36:41;;;;;;;;;;;;;;;18.30;63.80;101048.34;5057821;28;1910;-64
2022/06/17 02:39:06;;;;;;;;;;;;;;;16.83;71.12;101054.16;5088351;28;1576;-63
2022/06/17 02:41:32;;;;;;;;;;;;;;;17.74;64.46;101055.50;5066442;28;1019;-64
2022/06/17 02:43:58;;;;;;;;;;;;;;;18.09;61.17;101056.63;5083589;28;1344;-64
2022/06/17 02:46:27;;;;;;;;;;;;;;;18.90;64.44;101053.97;5067305;28;1193;-64
2022/06/17 02:48:57;;;;;;;;;;;;;;;17.60;64.66;101062.66;5051870;28;1322;-64
2022/06/17 02:51:23;;;;;;;;;;;;;;;18.05;70.50;101068.47;5064275;28;1242;-64
2022/06/17 02:53:49;;;;;;;;;;;;;;;19.36;63.91;101052.84;5072788;28;1194;-64
2022/06/17 02:56:18;;;;;;;;;;;;;;;16.65;70.07;101058.22;5070589;28;1906;-64
2022/06/17 02:58:47;;;;;;;;;;;;;;;18.51;68.87;101060.13;5077588;28;1222;-64
2022/06/17 03:01:18;;;;;;;;;;;;;;;17.38;65.13;101060.97;5073930;28;1178;-62
2022/06/17 03:03:50;;;;;;;;;;;;;;;16.89;70.82;101064.13;5074396;28;1296;-63
2022/06/17 03:06:17;;;;;;;;;;;;;;;17.82;64.31;101061.56;5076899;28;1221;-63
2022/06/17 03:08:42;;;;;;;;;;;;;;;18.20;61.36;101075.88;5066813;28;1195;-63
2022/06/17 03:11:09;;;;;;;;;;;;;;;18.30;59.60;101070.38;5076881;28;1190;-64
2022/06/17 03:13:50;;;;;;;;;;;;;;;18.33;58.67;101069.81;5096022;28;1008;-65
2022/06/17 03:16:16;;;;;;;;;;;;;;;19.11;63.33;101068.47;5079629;28;1910;-65
2022/06/17 03:18:42;;;;;;;;;;;;;;;16.67;65.15;101059.59;5086702;28;979;-65
2022/06/17 03:21:08;;;;;;;;;;;;;;;17.70;71.46;101064.59;5073619;28;1165;-64
2022/06/17 03:23:36;;;;;;;;;;;;;;;19.31;64.60;101058.44;5069564;28;1155;-60
2022/06/17 03:26:02;;;;;;;;;;;;;;;16.56;70.16;101066.97;5055300;28;1296;-63
2022/06/17 03:28:33;;;;;;;;;;;;;;;17.45;67.68;101058.78;5070186;28;1123;-68
2022/06/17 03:31:03;;;;;;;;;;;;;;;18.11;62.43;101057.16;5056799;28;1278;-67
2022/06/17 03:33:37;;;;;;;;;;;;;;;18.26;60.19;101055.50;5060741;28;1212;-65
2022/06/17 03:36:08;;;;;;;;;;;;;;;18.33;58.69;101052.44;5070402;28;1927;-65
2022/06/17 03:38:37;;;;;;;;;;;;;;;18.54;60.56;101053.25;5077325;28;1282;-64
2022/06/17 03:41:09;;;;;;;;;;;;;;;19.31;62.97;101062.00;5070028;28;1273;-64
2022/06/17 03:43:37;;;;;;;;;;;;;;;17.07;68.00;101060.06;5062768;28;1394;-65
2022/06/17 03:46:06;;;;;;;;;;;;;;;18.86;68.16;101060.25;5075860;28;1238;-64
2022/06/17 03:48:39;;;;;;;;;;;;;;;17.44;64.46;101054.38;5074847;28;1292;-62
2022/06/17 03:51:04;;;;;;;;;;;;;;;17.08;70.76;101051.56;5071165;28;1331;-61
2022/06/17 03:53:33;;;;;;;;;;;;;;;17.99;64.11;101058.56;5067197;28;1159;-62
2022/06/17 03:56:02;;;;;;;;;;;;;;;18.35;60.83;101048.31;5090938;28;1983;-61
2022/06/17 03:58:31;;;;;;;;;;;;;;;18.38;59.21;101045.00;5058568;28;1094;-63
2022/06/17 04:01:02;;;;;;;;;;;;;;;18.42;58.56;101039.78;5070926;28;1459;-62
2022/06/17 04:03:29;;;;;;;;;;;;;;;18.67;60.70;101041.63;5088159;28;2590;-65
2022/06/17 04:06:05;;;;;;;;;;;;;;;18.38;63.30;101052.44;5044454;28;2000;-66
2022/06/17 04:08:32;;;;;;;;;;;;;;;17.56;70.57;101039.56;5067172;28;2063;-67
2022/06/17 04:10:58;;;;;;;;;;;;;;;19.34;65.89;101040.50;5083916;28;2193;-64
2022/06/17 04:13:24;;;;;;;;;;;;;;;16.65;64.83;101038.97;5055013;28;1898;-66
2022/06/17 04:15:59;;;;;;;;;;;;;;;17.31;69.00;101038.41;5082163;28;1978;-66
2022/06/17 04:18:25;;;;;;;;;;;;;;;18.12;62.96;101031.31;5067265;28;2200;-65
2022/06/17 04:20:54;;;;;;;;;;;;;;;18.37;60.56;101035.13;5093430;28;909;-64
2022/06/17 04:23:31;;;;;;;;;;;;;;;18.40;59.35;101040.06;5060000;28;1234;-65
2022/06/17 04:26:05;;;;;;;;;;;;;;;18.33;58.25;101031.25;5085281;28;1188;-66
2022/06/17 04:28:33;;;;;;;;;;;;;;;18.37;57.75;101040.63;5071640;28;1150;-65
2022/06/17 04:31:03;;;;;;;;;;;;;;;18.92;61.81;101040.72;5053265;28;1199;-66
2022/06/17 04:33:34;;;;;;;;;;;;;;;17.64;64.50;101033.50;5062523;28;1020;-68
2022/06/17 04:36:01;;;;;;;;;;;;;;;18.07;70.75;101050.56;5063775;28;1905;-67
2022/06/17 04:38:27;;;;;;;;;;;;;;;19.48;64.19;101034.03;5084068;28;1150;-67
2022/06/17 04:41:14;;;;;;;;;;;;;;;16.73;71.48;101044.81;5087973;28;1178;-67
2022/06/17 04:43:57;;;;;;;;;;;;;;;18.98;67.04;101047.03;5065240;28;1199;-68
2022/06/17 04:46:27;;;;;;;;;;;;;;;16.76;65.29;101046.19;5055344;28;1119;-69
2022/06/17 04:48:57;;;;;;;;;;;;;;;17.24;70.16;101040.59;5061753;28;2711;-66
2022/06/17 04:51:26;;;;;;;;;;;;;;;18.09;63.44;101040.13;5076496;28;1247;-68
2022/06/17 04:53:53;;;;;;;;;;;;;;;18.32;60.93;101031.53;5099033;28;1087;-67
2022/06/17 04:56:48;;;;;;;;;;;;;;;18.44;59.36;101037.56;5069462;28;1909;-69
2022/06/17 04:59:30;;;;;;;;;;;;;;;18.42;58.61;101040.59;5077767;28;1176;-68
2022/06/17 05:01:56;;;;;;;;;;;;;;;18.41;57.72;101038.13;5074931;28;1298;-67
2022/06/17 05:04:45;;;;;;;;;;;;;;;18.34;57.40;101043.09;5077814;28;1155;-68
2022/06/17 05:07:11;;;;;;;;;;;;;;;18.95;61.39;101036.56;5078464;28;1255;-67
2022/06/17 05:09:44;;;;;;;;;;;;;;;17.47;64.06;101049.44;5059601;28;1185;-66
2022/06/17 05:12:18;;;;;;;;;;;;;;;17.05;69.79;101054.81;5076161;28;1310;-67
2022/06/17 05:14:49;;;;;;;;;;;;;;;17.98;62.88;101057.75;5074455;28;1129;-67
2022/06/17 05:17:14;;;;;;;;;;;;;;;18.21;60.34;101050.81;5072345;28;1917;-66
2022/06/17 05:19:42;;;;;;;;;;;;;;;18.26;59.08;101058.25;5077209;28;2563;-68
2022/06/17 05:22:13;;;;;;;;;;;;;;;18.72;61.93;101044.34;5062051;28;1222;-67
2022/06/17 05:24:38;;;;;;;;;;;;;;;18.09;63.89;101047.53;5062286;28;1186;-68
2022/06/17 05:27:04;;;;;;;;;;;;;;;17.61;70.52;101059.63;5068401;28;1264;-68
2022/06/17 05:29:30;;;;;;;;;;;;;;;19.32;65.54;101052.63;5058601;28;1215;-67
2022/06/17 05:32:01;;;;;;;;;;;;;;;16.45;66.05;101057.00;5073281;28;1153;-67
2022/06/17 05:34:36;;;;;;;;;;;;;;;17.32;68.57;101061.22;5072827;28;1237;-67
2022/06/17 05:37:01;;;;;;;;;;;;;;;18.09;62.93;101053.88;5067255;28;1973;-67
2022/06/17 05:39:27;;;;;;;;;;;;;;;18.32;60.49;101046.13;5070950;28;1170;-67
2022/06/17 05:41:52;;;;;;;;;;;;;;;18.35;59.16;101042.81;5074910;28;1292;-68
2022/06/17 05:44:18;;;;;;;;;;;;;;;18.35;58.30;101042.81;5075425;28;1103;-67
2022/06/17 05:46:47;;;;;;;;;;;;;;;18.33;57.90;101042.28;5072181;28;1271;-67
2022/06/17 05:49:31;;;;;;;;;;;;;;;18.61;60.46;101049.06;5074106;28;2544;-68
2022/06/17 05:52:09;;;;;;;;;;;;;;;18.51;63.38;101049.13;5073520;28;1025;-67
2022/06/17 05:54:48;;;;;;;;;;;;;;;17.68;70.27;101042.84;5064072;28;1395;-64
2022/06/17 05:57:17;;;;;;;;;;;;;;;19.65;64.33;101041.91;5098605;28;1913;-68
2022/06/17 05:59:42;;;;;;;;;;;;;;;17.53;62.23;101040.09;5068271;28;1114;-65
2022/06/17 06:02:11;;;;;;;;;;;;;;;17.03;67.27;101043.28;5071151;28;1383;-66
2022/06/17 06:04:59;;;;;;;;;;;;;;;19.01;64.98;101045.63;5067221;28;1119;-65
2022/06/17 06:07:27;;;;;;;;;;;;;;;19.68;56.92;101037.75;5067745;28;1204;-66
2022/06/17 06:09:55;;;;;;;;;;;;;;;18.18;62.09;101042.31;5072854;28;1203;-67
2022/06/17 06:12:20;;;;;;;;;;;;;;;17.01;61.48;101037.25;5075269;28;1316;-68
2022/06/17 06:14:46;;;;;;;;;;;;;;;16.98;68.06;101043.28;5094642;28;1099;-72
2022/06/17 06:17:13;;;;;;;;;;;;;;;18.66;68.54;101037.19;5071641;28;1910;-72
2022/06/17 06:19:39;;;;;;;;;;;;;;;19.47;59.85;101035.16;5074791;28;2728;-70
2022/06/17 06:22:05;;;;;;;;;;;;;;;19.81;54.61;101031.59;5066477;28;974;-69
2022/06/17 06:24:31;;;;;;;;;;;;;;;18.46;61.37;101036.16;5050026;28;1191;-70
2022/06/17 06:26:56;;;;;;;;;;;;;;;17.30;63.04;101042.25;5072332;28;1429;-65
2022/06/17 06:29:28;;;;;;;;;;;;;;;17.04;66.89;101036.72;5063811;28;1174;-63
2022/06/17 06:31:55;;;;;;;;;;;;;;;18.60;68.90;101035.59;5070481;28;1230;-66
2022/06/17 06:34:39;;;;;;;;;;;;;;;19.63;60.68;101035.03;5073698;28;1186;-68
2022/06/17 06:37:04;;;;;;;;;;;;;;;19.88;54.81;101019.41;5071019;28;1965;-65
2022/06/17 06:39:30;;;;;;;;;;;;;;;17.29;62.44;101024.09;5069724;28;1273;-69
2022/06/17 06:41:58;;;;;;;;;;;;;;;16.85;66.56;101028.09;5073424;28;1165;-69
2022/06/17 06:44:24;;;;;;;;;;;;;;;18.55;65.09;101022.66;5073574;28;1928;-70
2022/06/17 06:46:56;;;;;;;;;;;;;;;19.52;63.06;101023.25;5097209;28;995;-70
2022/06/17 06:49:31;;;;;;;;;;;;;;;17.28;60.92;101023.28;5074906;28;2501;-65
2022/06/17 06:51:56;;;;;;;;;;;;;;;16.76;66.45;101018.75;5087262;28;819;-68
2022/06/17 06:54:22;;;;;;;;;;;;;;;18.42;69.23;101021.31;5069280;28;1308;-69
2022/06/17 06:56:50;;;;;;;;;;;;;;;19.36;60.18;101019.78;5078634;28;1898;-70
2022/06/17 06:59:15;;;;;;;;;;;;;;;20.02;58.70;101011.25;5090381;28;1003;-70
2022/06/17 07:01:41;;;;;;;;;;;;;;;17.66;62.00;101011.25;5077828;28;1307;-68
2022/06/17 07:04:07;;;;;;;;;;;;;;;17.14;65.69;101007.59;5078711;28;952;-67
2022/06/17 07:06:33;;;;;;;;;;;;;;;18.89;65.75;101013.72;5072067;28;1217;-69
2022/06/17 07:08:58;;;;;;;;;;;;;;;19.87;60.51;101009.50;5074941;28;1181;-69
2022/06/17 07:11:23;;;;;;;;;;;;;;;17.45;60.85;101019.47;5090917;28;976;-67
2022/06/17 07:13:49;;;;;;;;;;;;;;;16.95;68.20;101026.50;5086935;28;1215;-65
2022/06/17 07:16:14;;;;;;;;;;;;;;;18.77;68.21;101033.28;5092725;28;1905;-65
2022/06/17 07:18:40;;;;;;;;;;;;;;;19.66;59.49;101024.25;5089733;28;2518;-65
2022/06/17 07:21:06;;;;;;;;;;;;;;;20.05;55.22;101017.03;5093700;28;1209;-65
2022/06/17 07:23:36;;;;;;;;;;;;;;;17.77;63.29;101013.69;5090429;28;1055;-63
2022/06/17 07:26:03;;;;;;;;;;;;;;;17.09;61.55;101020.22;5083904;28;1142;-65
2022/06/17 07:28:28;;;;;;;;;;;;;;;17.80;69.92;101028.84;5085507;28;1086;-66
2022/06/17 07:30:54;;;;;;;;;;;;;;;19.44;65.62;101013.66;5092665;28;981;-64
2022/06/17 07:33:20;;;;;;;;;;;;;;;19.05;59.73;101014.47;5085177;28;1199;-65
2022/06/17 07:35:46;;;;;;;;;;;;;;;17.06;62.67;101008.97;5089631;28;1979;-64
2022/06/17 07:40:56;;;;;;;;;;;;;;;19.46;61.40;101003.16;5090361;28;1186;-66
2022/06/17 07:43:21;;;;;;;;;;;;;;;20.03;57.18;100999.09;5091121;28;1026;-61
2022/06/17 07:45:47;;;;;;;;;;;;;;;17.63;63.17;101007.13;5094873;28;1161;-65
2022/06/17 07:48:12;;;;;;;;;;;;;;;17.08;67.00;101002.09;5093872;28;1894;-65
2022/06/17 07:50:38;;;;;;;;;;;;;;;18.87;67.26;100998.56;5091283;28;1026;-65
2022/06/17 07:53:03;;;;;;;;;;;;;;;19.64;60.76;100995.28;5083510;28;1058;-67
2022/06/17 07:55:29;;;;;;;;;;;;;;;17.24;61.43;100994.69;5080727;28;1901;-64
2022/06/17 07:57:54;;;;;;;;;;;;;;;17.26;69.78;101002.66;5091195;28;1023;-65
2022/06/17 08:00:21;;;;;;;;;;;;;;;19.06;66.84;100998.75;5087408;28;1194;-64
2022/06/17 08:02:47;;;;;;;;;;;;;;;19.82;58.57;100999.31;5092997;28;1003;-64
2022/06/17 08:05:12;;;;;;;;;;;;;;;18.89;59.64;100997.19;5091735;28;1296;-63
2022/06/17 08:07:38;;;;;;;;;;;;;;;17.41;64.22;100993.63;5083608;28;1039;-63
2022/06/17 08:10:03;;;;;;;;;;;;;;;16.64;64.38;101007.97;5089661;28;1154;-63
2022/06/17 08:12:29;;;;;;;;;;;;;;;17.98;68.20;100997.22;5083394;28;981;-64
2022/06/17 08:14:56;;;;;;;;;;;;;;;19.51;65.36;100999.53;5083234;28;1125;-63
2022/06/17 08:17:21;;;;;;;;;;;;;;;17.75;62.38;101004.91;5094669;28;1974;-63
2022/06/17 08:19:49;;;;;;;;;;;;;;;16.79;65.20;101004.47;5084338;28;2500;-62
2022/06/17 08:22:15;;;;;;;;;;;;;;;18.56;69.12;101006.97;5086944;28;1009;-64
2022/06/17 08:24:40;;;;;;;;;;;;;;;19.53;59.95;101004.75;5091768;28;1008;-65
2022/06/17 08:27:06;;;;;;;;;;;;;;;19.67;58.85;101003.00;5094663;28;1146;-67
2022/06/17 08:29:31;;;;;;;;;;;;;;;17.46;63.69;100999.13;5095617;28;1300;-67
2022/06/17 08:32:44;;;;;;;;;;;;;;;17.14;67.32;101004.84;5082962;28;1019;-67
2022/06/17 08:34:42;;;;;;;;;;;;;;;19.15;66.89;101008.91;5077190;28;1436;-65
2022/06/17 08:37:08;;;;;;;;;;;;;;;18.39;62.26;100999.84;5087840;28;1985;-65
2022/06/17 08:39:33;;;;;;;;;;;;;;;16.84;63.13;101001.72;5087547;28;1154;-69
2022/06/17 08:42:04;;;;;;;;;;;;;;;17.90;70.92;101011.50;5092823;28;1063;-67
2022/06/17 08:44:30;;;;;;;;;;;;;;;19.27;62.88;101004.97;5069668;28;1108;-64
2022/06/17 08:47:05;;;;;;;;;;;;;;;19.85;55.62;101004.22;5088826;28;1011;-66
2022/06/17 08:49:31;;;;;;;;;;;;;;;18.25;62.29;101007.88;5093552;28;2530;-66
2022/06/17 08:52:11;;;;;;;;;;;;;;;17.04;64.04;101013.88;5087866;28;1143;-66
2022/06/17 08:54:44;;;;;;;;;;;;;;;17.53;68.72;101018.09;5082107;28;1004;-67
2022/06/17 08:57:11;;;;;;;;;;;;;;;19.28;66.50;101006.63;5069604;28;1914;-62
2022/06/17 08:59:45;;;;;;;;;;;;;;;18.58;61.79;101007.50;5083045;28;1094;-63
2022/06/17 09:02:19;;;;;;;;;;;;;;;16.84;64.44;101006.38;5087830;28;1249;-65
2022/06/17 09:04:51;;;;;;;;;;;;;;;17.98;71.06;100999.97;5089402;28;1265;-65
2022/06/17 09:07:19;;;;;;;;;;;;;;;19.28;61.96;101003.88;5068386;28;1169;-65
2022/06/17 09:09:44;;;;;;;;;;;;;;;19.85;56.37;100993.19;5068975;28;1159;-64
2022/06/17 09:12:19;;;;;;;;;;;;;;;18.13;63.35;101002.69;5090274;28;1206;-64
2022/06/17 09:14:59;;;;;;;;;;;;;;;16.98;62.26;101001.25;5088355;28;1170;-62
2022/06/17 09:17:37;;;;;;;;;;;;;;;18.12;69.74;100995.53;5085451;28;2039;-65
2022/06/17 09:20:03;;;;;;;;;;;;;;;19.71;63.66;100993.00;5062598;28;2417;-65
2022/06/17 09:22:32;;;;;;;;;;;;;;;17.75;60.74;100996.66;5086465;28;1329;-63
2022/06/17 09:25:00;;;;;;;;;;;;;;;16.84;66.84;100998.16;5088728;28;898;-66
2022/06/17 09:27:30;;;;;;;;;;;;;;;18.74;68.57;100992.53;5093031;28;1237;-66
2022/06/17 09:30:00;;;;;;;;;;;;;;;19.65;59.46;100983.16;5085591;28;1079;-65
2022/06/17 09:32:45;;;;;;;;;;;;;;;19.00;60.80;100997.97;5070215;28;1409;-67
2022/06/17 09:35:17;;;;;;;;;;;;;;;17.16;64.19;100992.50;5084058;28;1023;-66
2022/06/17 09:37:51;;;;;;;;;;;;;;;17.39;69.13;101004.91;5089471;28;1914;-64
2022/06/17 09:40:26;;;;;;;;;;;;;;;19.15;67.64;101003.38;5096659;28;1110;-65
2022/06/17 09:43:12;;;;;;;;;;;;;;;18.78;61.41;100998.31;5087621;28;1082;-65
2022/06/17 09:45:40;;;;;;;;;;;;;;;16.95;64.13;100994.38;5085946;28;1277;-66
2022/06/17 09:48:09;;;;;;;;;;;;;;;17.41;70.68;100999.94;5085505;28;2575;-65
2022/06/17 09:50:48;;;;;;;;;;;;;;;18.78;65.88;100993.63;5097588;28;936;-65
2022/06/17 09:53:14;;;;;;;;;;;;;;;19.79;60.92;100999.84;5069392;28;1051;-65
2022/06/17 09:55:41;;;;;;;;;;;;;;;18.01;63.65;100996.66;5091658;28;1909;-64
2022/06/17 09:58:16;;;;;;;;;;;;;;;16.79;62.91;100992.63;5063291;28;1015;-67
2022/06/17 10:00:42;;;;;;;;;;;;;;;18.32;70.69;100995.75;5087891;28;2165;-70
2022/06/17 10:03:23;;;;;;;;;;;;;;;19.47;62.82;100993.78;5075707;28;1804;-66
2022/06/17 10:05:54;;;;;;;;;;;;;;;19.95;56.02;100992.28;5080954;28;2184;-67
2022/06/17 10:08:28;;;;;;;;;;;;;;;17.52;64.23;100995.28;5066406;28;2176;-66
2022/06/17 10:10:54;;;;;;;;;;;;;;;16.83;64.69;100999.25;5091918;28;2238;-67
2022/06/17 10:13:37;;;;;;;;;;;;;;;18.40;69.35;101000.69;5064344;28;2137;-65
2022/06/17 10:19:01;;;;;;;;;;;;;;;17.20;64.45;100992.78;5097106;28;991;-66
2022/06/17 10:21:46;;;;;;;;;;;;;;;16.68;64.88;100997.28;5093418;28;1206;-55
2022/06/17 10:24:12;;;;;;;;;;;;;;;17.65;68.30;100988.41;5091529;28;987;-55
2022/06/17 10:26:40;;;;;;;;;;;;;;;19.02;67.40;100986.66;5087150;28;1007;-57
2022/06/17 10:29:06;;;;;;;;;;;;;;;19.13;62.29;100985.47;5084353;28;1004;-52
2022/06/17 10:31:32;;;;;;;;;;;;;;;17.15;61.34;100990.00;5093123;28;975;-64
2022/06/17 10:33:57;;;;;;;;;;;;;;;17.84;70.10;100982.31;5084903;28;2720;-59
2022/06/17 10:36:23;;;;;;;;;;;;;;;19.45;65.36;100973.94;5078509;28;2070;-60
2022/06/17 10:38:48;;;;;;;;;;;;;;;19.86;58.02;100971.97;5071188;28;2049;-61
2022/06/17 10:41:14;;;;;;;;;;;;;;;17.36;62.79;100968.88;5087819;28;2317;-58
2022/06/17 10:43:41;;;;;;;;;;;;;;;16.73;65.44;100970.66;5084363;28;1929;-56
2022/06/17 10:46:10;;;;;;;;;;;;;;;17.65;68.04;100969.16;5089122;28;1931;-57
2022/06/17 10:48:46;;;;;;;;;;;;;;;19.21;66.26;100973.00;5074580;28;2172;-59
2022/06/17 10:51:11;;;;;;;;;;;;;;;18.38;63.53;100965.16;5068349;28;2269;-60
2022/06/17 10:53:44;;;;;;;;;;;;;;;16.90;63.42;100964.13;5069762;28;2455;-57
2022/06/17 10:56:11;;;;;;;;;;;;;;;17.92;71.87;100970.78;5065513;28;2186;-57
2022/06/17 10:58:37;;;;;;;;;;;;;;;19.12;63.71;100965.34;5073127;28;2257;-59
2022/06/17 11:01:02;;;;;;;;;;;;;;;19.88;59.47;100975.25;5069451;28;2143;-57
2022/06/17 11:03:29;;;;;;;;;;;;;;;17.89;64.63;100954.81;5085161;28;1915;-59
2022/06/17 11:06:15;;;;;;;;;;;;;;;16.78;63.44;100958.88;5082716;28;2030;-63
2022/06/17 11:08:57;;;;;;;;;;;;;;;18.61;69.59;100954.63;5083463;28;2388;-64
2022/06/17 11:14:24;;;;;;;;;;;;;;;17.77;59.84;100942.19;5084023;28;2199;-64
2022/06/17 11:16:49;;;;;;;;;;;;;;;16.79;64.77;100954.19;5083231;28;2050;-61
2022/06/17 11:19:15;;;;;;;;;;;;;;;18.36;70.72;100958.31;5069922;28;2454;-59
2022/06/17 11:21:43;;;;;;;;;;;;;;;19.47;62.28;100955.19;5068326;28;1884;-62
2022/06/17 11:24:10;;;;;;;;;;;;;;;19.99;56.11;100965.75;5089292;28;1866;-60
2022/06/17 11:26:36;;;;;;;;;;;;;;;18.00;64.00;100964.72;5066499;28;2072;-62
2022/06/17 11:29:17;;;;;;;;;;;;;;;17.09;63.96;100965.28;5086051;28;1871;-58
2022/06/17 11:31:45;;;;;;;;;;;;;;;17.58;69.47;100960.34;5087317;28;1167;-58
2022/06/17 11:34:14;;;;;;;;;;;;;;;19.20;68.22;100954.84;5088561;28;1269;-60
2022/06/17 11:36:54;;;;;;;;;;;;;;;19.78;60.70;100949.38;5087612;28;1969;-64
2022/06/17 11:39:32;;;;;;;;;;;;;;;17.30;63.02;100956.25;5086755;28;1240;-61
2022/06/17 11:41:58;;;;;;;;;;;;;;;16.94;69.00;100957.00;5091109;28;1067;-60
2022/06/17 11:44:24;;;;;;;;;;;;;;;18.26;66.78;100965.50;5087116;28;1062;-61
2022/06/17 11:47:07;;;;;;;;;;;;;;;19.58;64.87;100955.09;5074045;28;1079;-61
2022/06/17 11:49:36;;;;;;;;;;;;;;;17.95;63.48;100959.25;5069252;28;2571;-65
2022/06/17 11:52:06;;;;;;;;;;;;;;;16.79;63.46;100954.19;5065202;28;2455;-66
2022/06/17 11:54:33;;;;;;;;;;;;;;;18.35;71.23;100954.72;5064736;28;1975;-62
2022/06/17 11:56:59;;;;;;;;;;;;;;;19.41;62.42;100950.00;5092189;28;1972;-64
2022/06/17 11:59:29;;;;;;;;;;;;;;;19.90;56.02;100945.44;5073484;28;2060;-64
2022/06/17 12:01:54;;;;;;;;;;;;;;;18.12;63.23;100957.00;5082597;28;1783;-65
2022/06/17 12:04:39;;;;;;;;;;;;;;;17.05;62.80;100942.19;5082323;28;1984;-60
2022/06/17 12:07:20;;;;;;;;;;;;;;;17.06;69.33;100965.81;5087437;28;2203;-62
2022/06/17 12:09:45;;;;;;;;;;;;;;;18.83;70.05;100945.97;5087600;28;1202;-59
2022/06/17 12:12:13;;;;;;;;;;;;;;;19.63;61.42;100944.00;5072337;28;960;-59
2022/06/17 12:14:49;;;;;;;;;;;;;;;20.05;56.70;100942.50;5066513;28;1327;-57
2022/06/17 12:17:16;;;;;;;;;;;;;;;17.68;64.80;100943.03;5068021;28;2245;-58
2022/06/17 12:19:42;;;;;;;;;;;;;;;16.92;64.00;100948.22;5088750;28;2093;-61
2022/06/17 12:22:13;;;;;;;;;;;;;;;17.68;70.45;100943.84;5091343;28;2272;-58
2022/06/17 12:24:57;;;;;;;;;;;;;;;19.23;68.91;100934.97;5078163;28;1971;-60
2022/06/17 12:27:26;;;;;;;;;;;;;;;18.94;61.62;100935.72;5078063;28;1819;-58
2022/06/17 12:30:01;;;;;;;;;;;;;;;17.14;63.35;100934.25;5071595;28;2073;-60
2022/06/17 12:32:33;;;;;;;;;;;;;;;17.32;70.92;100935.63;5068794;28;2178;-60
2022/06/17 12:35:17;;;;;;;;;;;;;;;18.76;67.83;100929.75;5087581;28;825;-60
2022/06/17 12:37:49;;;;;;;;;;;;;;;19.72;60.23;100930.41;5086022;28;2028;-58
2022/06/17 12:40:30;;;;;;;;;;;;;;;18.29;63.75;100931.88;5091816;28;996;-59
2022/06/17 12:42:58;;;;;;;;;;;;;;;16.77;63.01;100927.00;5072777;28;1130;-57
2022/06/17 12:45:32;;;;;;;;;;;;;;;18.42;70.52;100924.13;5069698;28;1083;-57
2022/06/17 12:48:04;;;;;;;;;;;;;;;19.67;62.93;100923.81;5092903;28;857;-58
2022/06/17 12:53:36;;;;;;;;;;;;;;;16.90;65.44;100918.28;5089165;28;968;-61
2022/06/17 12:56:08;;;;;;;;;;;;;;;17.10;69.96;100928.47;5083611;28;1985;-61
2022/06/17 12:58:55;;;;;;;;;;;;;;;18.40;68.64;100920.84;5071390;28;1134;-61
2022/06/17 13:01:22;;;;;;;;;;;;;;;19.85;66.20;100917.88;5088422;28;2439;-59
2022/06/17 13:03:50;;;;;;;;;;;;;;;17.69;62.52;100912.50;5075106;28;1079;-58
2022/06/17 13:06:35;;;;;;;;;;;;;;;16.95;67.42;100922.94;5082469;28;1114;-60
2022/06/17 13:09:03;;;;;;;;;;;;;;;18.85;70.46;100913.44;5088388;28;1098;-62
2022/06/17 13:11:38;;;;;;;;;;;;;;;19.76;61.86;100910.19;5089079;28;1038;-61
2022/06/17 13:14:09;;;;;;;;;;;;;;;19.80;55.81;100905.78;5071495;28;1217;-62
2022/06/17 13:16:46;;;;;;;;;;;;;;;17.55;63.59;100897.69;5076249;28;1906;-63